Time;durP1;ratioP1;P1;durP2;ratioP2;P2;SDS_P1;SDS_P2;PMS_P1;PMS_P2;Temp;Humidity;BMP_temperature;BMP_pressure;BME280_temperature;BME280_humidity;BME280_pressure;Samples;Min_cycle;Max_cycle;Signal;HPM_P1;HPM_P2
2022/10/03 00:00:20;;;;;;;3.92;1.40;;;17.50;64.20;;;;;;5051868;28;20163;-68
2022/10/03 00:02:49;;;;;;;2.08;1.40;;;17.50;64.20;;;;;;5051289;28;20317;-67
2022/10/03 00:05:26;;;;;;;3.58;1.48;;;17.50;64.20;;;;;;5052314;28;20206;-67
2022/10/03 00:08:26;;;;;;;2.10;1.20;;;17.50;64.20;;;;;;5050663;28;20167;-66
2022/10/03 00:11:16;;;;;;;2.80;1.80;;;17.50;64.20;;;;;;5051320;28;20237;-67
2022/10/03 00:14:13;;;;;;;3.17;1.42;;;17.50;64.20;;;;;;5051498;28;20223;-68
2022/10/03 00:16:54;;;;;;;3.80;1.48;;;17.50;64.20;;;;;;5051706;28;20191;-68
2022/10/03 00:19:38;;;;;;;2.45;1.73;;;17.40;64.20;;;;;;5052404;28;20163;-67
2022/10/03 00:22:16;;;;;;;2.22;1.60;;;17.50;64.20;;;;;;5051659;28;20198;-68
2022/10/03 00:25:00;;;;;;;1.77;1.20;;;17.50;64.20;;;;;;5052237;28;20217;-67
2022/10/03 00:27:36;;;;;;;2.50;1.52;;;17.40;64.20;;;;;;5052289;28;20258;-67
2022/10/03 00:30:08;;;;;;;3.10;1.65;;;17.40;64.20;;;;;;5055551;28;20224;-67
2022/10/03 00:32:43;;;;;;;2.40;1.23;;;17.40;64.20;;;;;;5056009;28;20600;-66
2022/10/03 00:35:48;;;;;;;3.00;1.45;;;17.40;64.10;;;;;;5053853;28;20637;-66
2022/10/03 00:38:46;;;;;;;2.40;1.30;;;17.40;64.20;;;;;;5055813;28;20209;-67
2022/10/03 00:41:24;;;;;;;2.63;1.23;;;17.40;64.20;;;;;;5055891;28;20194;-67
2022/10/03 00:43:53;;;;;;;2.65;1.42;;;17.40;64.20;;;;;;5054278;28;20179;-67
2022/10/03 00:46:46;;;;;;;2.88;1.30;;;17.40;64.10;;;;;;5055241;28;20572;-68
2022/10/03 00:49:21;;;;;;;3.13;1.75;;;17.40;64.20;;;;;;5035068;28;20182;-68
2022/10/03 00:51:53;;;;;;;3.08;1.70;;;17.40;64.20;;;;;;5035877;28;20172;-67
2022/10/03 00:54:34;;;;;;;2.85;1.80;;;17.40;64.20;;;;;;5042933;28;20257;-68
2022/10/03 00:57:24;;;;;;;3.72;1.83;;;17.40;64.20;;;;;;5054730;28;20174;-68
2022/10/03 01:00:12;;;;;;;2.58;1.45;;;17.40;64.20;;;;;;5038060;28;20175;-67
2022/10/03 01:03:05;;;;;;;2.60;1.50;;;17.40;64.20;;;;;;5054165;28;20175;-67
2022/10/03 01:05:49;;;;;;;2.28;1.33;;;17.40;64.20;;;;;;5055479;28;20206;-67
2022/10/03 01:08:23;;;;;;;2.90;1.35;;;17.40;64.20;;;;;;5055203;28;20309;-67
2022/10/03 01:11:03;;;;;;;2.60;1.35;;;17.30;64.10;;;;;;5054540;28;20178;-67
2022/10/03 01:13:55;;;;;;;1.90;1.30;;;17.30;64.20;;;;;;5053875;28;20233;-68
2022/10/03 01:16:36;;;;;;;2.53;1.50;;;17.40;64.20;;;;;;5053709;28;20172;-67
2022/10/03 01:19:25;;;;;;;3.08;1.35;;;17.30;64.10;;;;;;5052846;28;20183;-70
2022/10/03 01:22:12;;;;;;;2.40;1.33;;;17.30;64.10;;;;;;5054898;28;20187;-68
2022/10/03 01:24:45;;;;;;;3.25;1.65;;;17.30;64.10;;;;;;5054122;28;20175;-67
2022/10/03 01:27:13;;;;;;;1.85;1.42;;;17.30;64.20;;;;;;5053362;28;20183;-67
2022/10/03 01:32:54;;;;;;;3.15;1.40;;;17.30;64.10;;;;;;5053113;28;20262;-66
2022/10/03 01:35:39;;;;;;;2.67;1.70;;;17.30;64.10;;;;;;5054551;28;20201;-67
2022/10/03 01:38:32;;;;;;;1.88;1.25;;;17.30;64.20;;;;;;5053775;28;20186;-67
2022/10/03 01:41:02;;;;;;;2.35;1.45;;;17.30;64.10;;;;;;5053298;28;20657;-67
2022/10/03 01:43:31;;;;;;;2.60;1.58;;;17.30;64.10;;;;;;5037728;28;20187;-68
2022/10/03 01:46:07;;;;;;;2.75;1.33;;;17.30;64.20;;;;;;5053564;28;20219;-68
2022/10/03 01:48:33;;;;;;;1.77;1.30;;;17.30;64.10;;;;;;5071572;28;20521;-68
2022/10/03 01:51:10;;;;;;;1.77;1.20;;;17.30;64.10;;;;;;5074579;28;20178;-68
2022/10/03 01:54:00;;;;;;;2.38;1.20;;;17.30;64.10;;;;;;5054652;28;20577;-67
2022/10/03 01:56:39;;;;;;;1.52;1.40;;;17.30;64.00;;;;;;5037826;28;20167;-67
2022/10/03 01:59:09;;;;;;;1.83;1.10;;;17.20;64.00;;;;;;5052406;28;20174;-68
2022/10/03 02:01:52;;;;;;;2.38;1.25;;;17.30;64.10;;;;;;5036946;28;20221;-67
2022/10/03 02:04:43;;;;;;;2.28;1.33;;;17.30;64.10;;;;;;5054324;28;20201;-67
2022/10/03 02:07:35;;;;;;;1.42;1.00;;;17.20;64.00;;;;;;5052419;28;20204;-68
2022/10/03 02:10:31;;;;;;;1.63;1.10;;;17.20;64.00;;;;;;5052735;28;20610;-67
2022/10/03 02:13:16;;;;;;;3.47;1.33;;;17.20;64.00;;;;;;5053771;28;20221;-67
2022/10/03 02:16:09;;;;;;;1.52;1.30;;;17.20;64.00;;;;;;5037046;28;20174;-67
2022/10/03 02:18:53;;;;;;;1.70;1.05;;;17.20;64.00;;;;;;5054277;28;20179;-68
2022/10/03 02:21:26;;;;;;;2.75;1.15;;;17.20;64.00;;;;;;5053276;28;20171;-68
2022/10/03 02:24:20;;;;;;;3.78;1.45;;;17.20;64.00;;;;;;5052972;28;20190;-68
2022/10/03 02:27:04;;;;;;;2.80;1.30;;;17.20;64.00;;;;;;5054092;28;20559;-67
2022/10/03 02:29:34;;;;;;;1.92;1.10;;;17.20;64.10;;;;;;5053450;28;20174;-67
2022/10/03 02:32:28;;;;;;;1.58;1.00;;;17.20;64.00;;;;;;5052462;28;20183;-66
2022/10/03 02:35:13;;;;;;;2.30;1.45;;;17.20;64.00;;;;;;5052064;28;20205;-67
2022/10/03 02:38:16;;;;;;;1.08;0.93;;;17.20;64.00;;;;;;5053620;28;20183;-67
2022/10/03 02:41:01;;;;;;;2.95;1.30;;;17.20;64.00;;;;;;5053692;28;20649;-67
2022/10/03 02:43:48;;;;;;;1.95;1.00;;;17.20;64.10;;;;;;5052071;28;20175;-68
2022/10/03 02:46:19;;;;;;;2.40;1.30;;;17.20;64.00;;;;;;5053123;28;20699;-67
2022/10/03 02:49:12;;;;;;;1.20;1.10;;;17.20;64.00;;;;;;5071721;28;20175;-68
2022/10/03 02:52:04;;;;;;;1.95;1.40;;;17.20;64.00;;;;;;5072517;28;20179;-67
2022/10/03 02:54:48;;;;;;;1.77;1.30;;;17.20;64.10;;;;;;5062140;28;20186;-68
2022/10/03 02:57:26;;;;;;;1.88;1.13;;;17.20;64.10;;;;;;5052274;28;20221;-68
2022/10/03 03:00:20;;;;;;;3.30;1.27;;;17.10;64.00;;;;;;5052424;28;20175;-67
2022/10/03 03:03:04;;;;;;;3.15;1.25;;;17.10;64.00;;;;;;5051456;28;20173;-67
2022/10/03 03:06:03;;;;;;;2.17;1.10;;;17.20;64.00;;;;;;5051904;28;20695;-67
2022/10/03 03:09:14;;;;;;;2.30;1.33;;;17.20;64.10;;;;;;5052224;28;20526;-68
2022/10/03 03:12:14;;;;;;;2.72;1.35;;;17.20;64.00;;;;;;5051121;28;20182;-67
2022/10/03 03:15:01;;;;;;;1.92;1.30;;;17.10;64.00;;;;;;5053283;28;20202;-67
2022/10/03 03:17:52;;;;;;;1.40;1.20;;;17.10;64.00;;;;;;5051386;28;20248;-68
2022/10/03 03:20:51;;;;;;;2.40;1.55;;;17.10;64.00;;;;;;5052962;28;20205;-67
2022/10/03 03:23:35;;;;;;;1.45;1.00;;;17.10;64.00;;;;;;5052559;28;20270;-68
2022/10/03 03:26:42;;;;;;;1.52;1.08;;;17.10;64.00;;;;;;5051550;28;20210;-68
2022/10/03 03:29:26;;;;;;;2.67;1.65;;;17.10;64.00;;;;;;5030304;28;20207;-67
2022/10/03 03:32:07;;;;;;;1.50;1.00;;;17.10;63.90;;;;;;5014948;28;20200;-66
2022/10/03 03:34:42;;;;;;;1.45;1.20;;;17.10;64.00;;;;;;5046352;28;20287;-67
2022/10/03 03:37:37;;;;;;;1.90;1.33;;;17.10;64.00;;;;;;5052319;28;20178;-68
2022/10/03 03:40:09;;;;;;;2.55;1.40;;;17.10;64.00;;;;;;5043946;28;20550;-67
2022/10/03 03:42:51;;;;;;;1.30;1.13;;;17.10;64.90;;;;;;5052549;28;20671;-68
2022/10/03 03:45:44;;;;;;;2.47;1.30;;;17.10;64.00;;;;;;5050523;28;20214;-68
2022/10/03 03:48:37;;;;;;;3.15;1.17;;;17.10;64.00;;;;;;5066124;28;20597;-68
2022/10/03 03:51:34;;;;;;;1.20;0.88;;;17.10;64.00;;;;;;5071311;28;20559;-67
2022/10/03 03:54:37;;;;;;;2.78;1.42;;;17.10;64.00;;;;;;5051194;28;20182;-67
2022/10/03 03:57:32;;;;;;;1.30;1.10;;;17.10;64.00;;;;;;5052330;28;20182;-68
2022/10/03 04:00:03;;;;;;;2.55;1.30;;;17.10;64.00;;;;;;5044985;28;20654;-68
2022/10/03 04:02:54;;;;;;;1.52;0.93;;;17.00;64.00;;;;;;5051590;28;20178;-67
2022/10/03 04:05:46;;;;;;;1.88;1.05;;;17.00;63.90;;;;;;5055176;28;20352;-67
2022/10/03 04:08:35;;;;;;;1.67;0.90;;;17.00;63.90;;;;;;5034662;28;20532;-67
2022/10/03 04:11:23;;;;;;;1.88;1.13;;;17.00;64.00;;;;;;5056469;28;20163;-67
2022/10/03 04:14:14;;;;;;;1.73;1.10;;;17.00;63.90;;;;;;5054113;28;20226;-68
2022/10/03 04:20:17;;;;;;;1.02;0.90;;;17.00;63.90;;;;;;5054314;28;20540;-68
2022/10/03 04:23:11;;;;;;;1.60;1.23;;;17.00;64.00;;;;;;5056178;28;20634;-68
2022/10/03 04:25:37;;;;;;;1.00;0.90;;;17.00;63.90;;;;;;5056106;28;20700;-68
2022/10/03 04:28:34;;;;;;;1.20;0.90;;;17.00;63.90;;;;;;5055348;28;20183;-67
2022/10/03 04:31:25;;;;;;;1.00;0.90;;;17.00;63.90;;;;;;5054866;28;20182;-66
2022/10/03 04:34:09;;;;;;;2.42;1.20;;;17.00;64.00;;;;;;5055646;28;20250;-67
2022/10/03 04:37:07;;;;;;;2.38;1.30;;;17.00;63.90;;;;;;5056260;28;20264;-67
2022/10/03 04:39:50;;;;;;;2.40;1.20;;;17.00;64.00;;;;;;5054447;28;20171;-67
2022/10/03 04:42:39;;;;;;;2.75;1.20;;;17.00;63.90;;;;;;5053914;28;20171;-67
2022/10/03 04:45:17;;;;;;;2.75;1.30;;;17.00;64.00;;;;;;5055640;28;20215;-68
2022/10/03 04:47:50;;;;;;;3.03;1.45;;;17.00;63.90;;;;;;5054465;28;20554;-68
2022/10/03 04:50:22;;;;;;;1.75;1.17;;;17.00;63.90;;;;;;5054559;28;20214;-67
2022/10/03 04:53:07;;;;;;;2.70;1.20;;;17.00;64.00;;;;;;5055985;28;20191;-68
2022/10/03 04:55:46;;;;;;;1.58;1.00;;;17.00;64.00;;;;;;5053739;28;20205;-69
2022/10/03 04:58:23;;;;;;;2.10;1.27;;;16.90;63.90;;;;;;5055230;28;20179;-68
2022/10/03 05:01:14;;;;;;;1.17;1.05;;;17.00;64.00;;;;;;5038814;28;20220;-68
2022/10/03 05:03:53;;;;;;;1.17;1.02;;;16.90;63.90;;;;;;5054671;28;20653;-67
2022/10/03 05:06:24;;;;;;;2.05;1.30;;;16.90;64.00;;;;;;5054244;28;20214;-67
2022/10/03 05:08:58;;;;;;;2.17;1.15;;;16.90;63.90;;;;;;5054127;28;20167;-67
2022/10/03 05:11:38;;;;;;;2.03;1.20;;;16.90;63.90;;;;;;5054369;28;20178;-67
2022/10/03 05:14:39;;;;;;;2.83;1.05;;;16.90;63.90;;;;;;5037903;28;20187;-68
2022/10/03 05:17:25;;;;;;;1.55;1.08;;;16.90;63.90;;;;;;5053297;28;20197;-68
2022/10/03 05:20:18;;;;;;;1.52;1.27;;;16.90;63.90;;;;;;5037905;28;20237;-67
2022/10/03 05:23:10;;;;;;;4.57;1.45;;;16.90;64.00;;;;;;5055118;28;20167;-67
2022/10/03 05:26:06;;;;;;;1.45;1.20;;;16.90;63.90;;;;;;5053652;28;20705;-67
2022/10/03 05:28:38;;;;;;;1.50;1.08;;;16.90;63.90;;;;;;5053473;28;20524;-68
2022/10/03 05:31:14;;;;;;;1.45;1.00;;;16.90;63.90;;;;;;5054253;28;20175;-67
2022/10/03 05:33:50;;;;;;;1.55;1.10;;;16.90;64.00;;;;;;5037485;28;20578;-67
2022/10/03 05:36:36;;;;;;;3.70;1.50;;;16.90;64.00;;;;;;5053612;28;20171;-67
2022/10/03 05:39:24;;;;;;;1.20;1.00;;;16.90;63.90;;;;;;5054050;28;20171;-67
2022/10/03 05:42:23;;;;;;;2.45;1.10;;;16.90;64.00;;;;;;5054982;28;20190;-67
2022/10/03 05:45:11;;;;;;;1.48;1.10;;;16.90;63.90;;;;;;5053949;28;20194;-67
2022/10/03 05:48:01;;;;;;;2.08;1.10;;;16.90;63.90;;;;;;5065206;28;20277;-67
2022/10/03 05:50:56;;;;;;;1.38;1.08;;;16.90;63.90;;;;;;5074343;28;20178;-68
2022/10/03 05:53:49;;;;;;;0.73;0.73;;;16.90;63.90;;;;;;5072140;28;20220;-68
2022/10/03 05:56:38;;;;;;;1.27;0.90;;;16.90;64.00;;;;;;5054240;28;20175;-68
2022/10/03 05:59:25;;;;;;;1.33;1.10;;;16.90;63.90;;;;;;5052375;28;20676;-67
2022/10/03 06:02:05;;;;;;;1.77;1.20;;;16.90;63.90;;;;;;5054483;28;20684;-67
2022/10/03 06:04:52;;;;;;;1.77;1.10;;;16.80;63.80;;;;;;5053099;28;20179;-67
2022/10/03 06:07:39;;;;;;;1.55;1.17;;;16.90;63.90;;;;;;5053630;28;20221;-66
2022/10/03 06:10:52;;;;;;;1.00;0.90;;;16.80;64.70;;;;;;5037665;28;20175;-67
2022/10/03 06:13:36;;;;;;;1.73;1.13;;;16.80;63.80;;;;;;5050696;28;20225;-67
2022/10/03 06:16:26;;;;;;;3.20;1.52;;;16.80;63.80;;;;;;5038679;28;20205;-67
2022/10/03 06:19:25;;;;;;;1.30;1.20;;;16.80;63.90;;;;;;5032958;28;20718;-66
2022/10/03 06:22:02;;;;;;;1.42;1.08;;;16.80;63.90;;;;;;5034127;28;20172;-67
2022/10/03 06:24:49;;;;;;;2.25;1.00;;;16.80;63.80;;;;;;5033145;28;20195;-67
2022/10/03 06:27:48;;;;;;;1.35;1.20;;;16.80;63.80;;;;;;5032515;28;20183;-66
2022/10/03 06:30:18;;;;;;;2.08;1.17;;;16.80;63.80;;;;;;5032707;28;20175;-67
2022/10/03 06:33:24;;;;;;;1.05;0.95;;;16.90;63.90;;;;;;5032841;28;20172;-66
2022/10/03 06:36:02;;;;;;;1.30;1.10;;;16.90;63.80;;;;;;5034110;28;20179;-66
2022/10/03 06:38:50;;;;;;;1.10;1.00;;;16.90;63.90;;;;;;5033047;28;20164;-66
2022/10/03 06:41:24;;;;;;;1.60;1.05;;;16.90;63.80;;;;;;5032596;28;20249;-66
2022/10/03 06:44:18;;;;;;;1.85;1.20;;;17.00;63.80;;;;;;5032592;28;20171;-66
2022/10/03 06:46:58;;;;;;;1.00;1.00;;;17.10;63.60;;;;;;5038931;28;20197;-66
2022/10/03 06:49:56;;;;;;;2.00;1.10;;;17.10;63.40;;;;;;5071636;28;20598;-67
2022/10/03 06:52:45;;;;;;;3.22;1.50;;;17.20;63.30;;;;;;5072229;28;20170;-66
2022/10/03 06:55:29;;;;;;;1.60;0.98;;;17.30;64.30;;;;;;5055783;28;20252;-66
2022/10/03 06:58:00;;;;;;;2.13;1.17;;;17.30;63.10;;;;;;5053671;28;20175;-67
2022/10/03 07:00:53;;;;;;;2.53;1.63;;;17.30;62.90;;;;;;5053521;28;20175;-67
2022/10/03 07:03:48;;;;;;;1.83;1.10;;;17.40;62.80;;;;;;5051212;28;20699;-67
2022/10/03 07:06:38;;;;;;;0.90;0.90;;;17.40;62.80;;;;;;5053122;28;20215;-66
2022/10/03 07:09:28;;;;;;;1.63;1.08;;;17.40;62.70;;;;;;5052515;28;20258;-66
2022/10/03 07:11:59;;;;;;;1.40;1.30;;;17.40;62.70;;;;;;5051753;28;20695;-64
2022/10/03 07:15:02;;;;;;;1.30;1.10;;;17.40;62.70;;;;;;5053425;28;20167;-69
2022/10/03 07:17:40;;;;;;;3.83;1.60;;;17.40;62.80;;;;;;5052398;28;20174;-64
2022/10/03 07:20:16;;;;;;;4.18;1.20;;;17.40;63.00;;;;;;5051567;28;20175;-64
2022/10/03 07:23:07;;;;;;;2.35;1.52;;;17.40;62.90;;;;;;5051347;28;20213;-63
2022/10/03 07:25:42;;;;;;;2.58;1.50;;;17.50;62.90;;;;;;5051919;28;20210;-63
2022/10/03 07:28:41;;;;;;;3.42;1.27;;;17.50;63.00;;;;;;5051584;28;20175;-63
2022/10/03 07:31:28;;;;;;;3.45;1.50;;;17.50;63.00;;;;;;5050826;28;20225;-63
2022/10/03 07:34:09;;;;;;;3.88;1.55;;;17.50;63.10;;;;;;5053082;28;20225;-63
2022/10/03 07:40:04;;;;;;;2.47;1.30;;;17.60;63.20;;;;;;5051126;28;20241;-63
2022/10/03 07:42:37;;;;;;;3.00;1.40;;;17.60;63.20;;;;;;5048031;28;20220;-64
2022/10/03 07:45:40;;;;;;;5.97;1.40;;;17.60;63.20;;;;;;5050507;28;20210;-63
2022/10/03 07:48:05;;;;;;;4.35;1.83;;;17.60;63.20;;;;;;5051484;28;20595;-64
2022/10/03 07:50:55;;;;;;;3.22;1.50;;;17.60;63.20;;;;;;5072648;28;20679;-64
2022/10/03 07:53:35;;;;;;;2.70;1.50;;;17.60;63.30;;;;;;5071752;28;20178;-63
2022/10/03 07:56:32;;;;;;;3.47;1.42;;;17.60;63.30;;;;;;5051343;28;20605;-63
2022/10/03 07:59:16;;;;;;;4.22;2.08;;;17.70;63.30;;;;;;5046503;28;20206;-64
2022/10/03 08:02:14;;;;;;;2.38;1.30;;;17.70;63.30;;;;;;5052446;28;20178;-64
2022/10/03 08:04:54;;;;;;;5.38;1.75;;;17.70;63.40;;;;;;5051719;28;20175;-63
2022/10/03 08:07:42;;;;;;;3.13;1.50;;;17.70;63.40;;;;;;5051001;28;20191;-63
2022/10/03 08:10:46;;;;;;;3.00;1.52;;;17.80;63.40;;;;;;5051508;28;20171;-63
2022/10/03 08:13:33;;;;;;;4.93;1.80;;;17.80;63.50;;;;;;5036286;28;20290;-63
2022/10/03 08:16:23;;;;;;;2.38;1.70;;;17.80;63.50;;;;;;5052428;28;20258;-64
2022/10/03 08:19:07;;;;;;;3.78;1.88;;;17.90;63.60;;;;;;5050513;28;20211;-63
2022/10/03 08:21:54;;;;;;;3.55;1.60;;;17.90;63.70;;;;;;5051346;28;20199;-63
2022/10/03 08:24:26;;;;;;;5.57;1.55;;;17.90;63.70;;;;;;5050896;28;20171;-63
2022/10/03 08:27:23;;;;;;;2.33;1.77;;;17.90;63.70;;;;;;5050321;28;20221;-63
2022/10/03 08:30:08;;;;;;;2.13;1.60;;;17.90;63.70;;;;;;5051179;28;20665;-63
2022/10/03 08:32:33;;;;;;;2.72;1.35;;;17.90;63.80;;;;;;5052231;28;20179;-62
2022/10/03 08:35:15;;;;;;;2.80;1.20;;;18.00;63.90;;;;;;5051174;28;20190;-63
2022/10/03 08:37:52;;;;;;;3.10;1.52;;;17.90;63.80;;;;;;5051217;28;20675;-63
2022/10/03 08:40:39;;;;;;;2.08;1.52;;;17.90;64.00;;;;;;5051487;28;20171;-63
2022/10/03 08:43:37;;;;;;;3.00;1.50;;;18.00;64.10;;;;;;5051970;28;20199;-63
2022/10/03 08:46:16;;;;;;;2.60;1.50;;;18.00;64.10;;;;;;5050943;28;20203;-63
2022/10/03 08:49:21;;;;;;;5.30;1.63;;;18.00;64.10;;;;;;5069892;28;20167;-63
2022/10/03 08:52:30;;;;;;;1.63;1.52;;;18.00;64.10;;;;;;5075772;28;20185;-64
2022/10/03 08:55:21;;;;;;;3.00;1.30;;;18.00;64.10;;;;;;5038168;28;20623;-63
2022/10/03 08:57:58;;;;;;;3.08;1.40;;;18.00;64.10;;;;;;5055820;28;20244;-64
2022/10/03 09:00:34;;;;;;;2.53;1.45;;;18.10;64.20;;;;;;5055956;28;20238;-63
2022/10/03 09:03:40;;;;;;;1.75;1.35;;;18.10;64.10;;;;;;5053782;28;20174;-63
2022/10/03 09:06:31;;;;;;;2.38;1.60;;;18.10;64.10;;;;;;5033281;28;20570;-63
2022/10/03 09:09:00;;;;;;;2.38;1.70;;;18.20;64.20;;;;;;5054763;28;20183;-63
2022/10/03 09:11:32;;;;;;;4.07;1.40;;;18.20;64.20;;;;;;5055623;28;20167;-63
2022/10/03 09:14:36;;;;;;;2.65;1.27;;;18.20;64.10;;;;;;5054079;28;20195;-63
2022/10/03 09:17:16;;;;;;;2.28;1.30;;;18.20;64.10;;;;;;5053273;28;20361;-63
2022/10/03 09:20:12;;;;;;;3.05;1.55;;;18.30;64.00;;;;;;5055472;28;20186;-63
2022/10/03 09:22:41;;;;;;;2.97;1.67;;;18.30;64.00;;;;;;5046138;28;20237;-63
2022/10/03 09:25:30;;;;;;;3.72;1.52;;;18.30;64.00;;;;;;5054690;28;20202;-63
2022/10/03 09:28:05;;;;;;;2.05;1.13;;;18.40;64.00;;;;;;5054344;28;20175;-63
2022/10/03 09:30:42;;;;;;;2.83;1.50;;;18.40;63.90;;;;;;5053304;28;20253;-63
2022/10/03 09:33:45;;;;;;;1.83;1.40;;;18.50;64.00;;;;;;5054719;28;20179;-62
2022/10/03 09:36:33;;;;;;;2.38;1.20;;;18.50;63.90;;;;;;5053016;28;20174;-63
2022/10/03 09:39:25;;;;;;;2.05;1.40;;;18.50;63.90;;;;;;5053836;28;20171;-63
2022/10/03 09:42:11;;;;;;;2.65;1.45;;;18.50;64.00;;;;;;5044840;28;20183;-63
2022/10/03 09:45:11;;;;;;;1.80;1.25;;;18.50;64.00;;;;;;5054405;28;20274;-63
2022/10/03 09:47:45;;;;;;;1.67;1.20;;;18.50;64.00;;;;;;5065239;28;20182;-63
2022/10/03 09:50:34;;;;;;;1.65;1.27;;;18.50;64.00;;;;;;5057158;28;20184;-65
2022/10/03 09:53:19;;;;;;;3.22;1.20;;;18.50;64.00;;;;;;5072880;28;20246;-64
2022/10/03 09:56:15;;;;;;;4.88;1.40;;;18.60;64.00;;;;;;5033948;28;20164;-65
2022/10/03 09:59:06;;;;;;;2.25;1.38;;;18.60;63.90;;;;;;5033754;28;20175;-66
2022/10/03 10:01:37;;;;;;;3.40;1.48;;;18.70;64.00;;;;;;5057863;28;20183;-66
2022/10/03 10:04:26;;;;;;;2.80;1.40;;;18.70;64.00;;;;;;5039544;28;20175;-65
2022/10/03 10:06:54;;;;;;;2.08;1.10;;;18.60;64.00;;;;;;5063763;28;20222;-64
2022/10/03 10:09:59;;;;;;;2.97;1.45;;;18.60;64.20;;;;;;5063388;28;20176;-63
2022/10/03 10:12:30;;;;;;;3.13;1.58;;;18.60;64.30;;;;;;5052245;28;20227;-65
2022/10/03 10:15:26;;;;;;;2.95;1.55;;;18.60;64.40;;;;;;5054163;28;20179;-66
2022/10/03 10:18:11;;;;;;;2.42;1.40;;;18.60;64.40;;;;;;5053030;28;20702;-66
2022/10/03 10:20:57;;;;;;;2.78;1.20;;;18.60;64.40;;;;;;5053701;28;20178;-65
2022/10/03 10:23:41;;;;;;;4.70;1.45;;;18.60;64.40;;;;;;5054173;28;20626;-66
2022/10/03 10:26:41;;;;;;;3.78;1.10;;;18.60;64.40;;;;;;5053135;28;20268;-65
2022/10/03 10:29:28;;;;;;;4.28;1.83;;;18.60;64.40;;;;;;5052600;28;20179;-66
2022/10/03 10:32:18;;;;;;;1.80;1.40;;;18.60;64.50;;;;;;5053961;28;20209;-65
2022/10/03 10:35:15;;;;;;;2.13;1.33;;;18.60;64.40;;;;;;5053274;28;20194;-65
2022/10/03 10:38:02;;;;;;;3.50;1.27;;;18.60;64.20;;;;;;5053828;28;20273;-66
2022/10/03 10:40:34;;;;;;;3.00;1.33;;;18.60;64.20;;;;;;5051841;28;20167;-65
2022/10/03 10:43:37;;;;;;;2.95;1.30;;;18.60;64.30;;;;;;5052332;28;20183;-66
2022/10/03 10:46:32;;;;;;;4.07;1.70;;;18.60;64.40;;;;;;5053339;28;20256;-65
2022/10/03 10:49:01;;;;;;;4.43;1.20;;;18.50;64.40;;;;;;5048453;28;20637;-65
2022/10/03 10:51:35;;;;;;;4.18;1.30;;;18.50;64.40;;;;;;5053741;28;20172;-65
2022/10/03 10:54:42;;;;;;;3.70;1.35;;;18.50;64.40;;;;;;5052472;28;20661;-66
2022/10/03 10:57:23;;;;;;;9.20;5.28;;;18.50;64.40;;;;;;5051777;28;20644;-66
2022/10/03 11:00:37;;;;;;;22.10;17.88;;;18.50;64.40;;;;;;5053417;28;20185;-65
2022/10/03 11:03:39;;;;;;;13.50;11.98;;;18.40;64.40;;;;;;5043949;28;20688;-65
2022/10/03 11:06:26;;;;;;;20.73;16.67;;;18.40;64.40;;;;;;5052010;28;20217;-63
2022/10/03 11:09:23;;;;;;;20.13;15.60;;;18.40;64.60;;;;;;5052584;28;20197;-64
2022/10/03 11:11:58;;;;;;;23.38;16.33;;;18.40;64.40;;;;;;5052046;28;20175;-64
2022/10/03 11:14:51;;;;;;;20.65;17.77;;;18.50;64.50;;;;;;5053702;28;20182;-65
2022/10/03 11:17:19;;;;;;;21.38;17.75;;;18.50;64.40;;;;;;5052786;28;20653;-65
2022/10/03 11:20:14;;;;;;;21.83;17.55;;;18.60;64.30;;;;;;5053147;28;20168;-64
2022/10/03 11:23:10;;;;;;;20.95;18.73;;;18.60;64.20;;;;;;5051304;28;20586;-65
2022/10/03 11:26:10;;;;;;;22.98;19.08;;;18.60;64.20;;;;;;5051915;28;20636;-64
2022/10/03 11:29:06;;;;;;;24.70;19.33;;;18.60;64.20;;;;;;5053121;28;20250;-65
2022/10/03 11:32:10;;;;;;;21.05;18.25;;;18.60;64.20;;;;;;5051914;28;20182;-65
2022/10/03 11:35:00;;;;;;;24.38;18.45;;;18.60;64.20;;;;;;5052909;28;20174;-65
2022/10/03 11:37:41;;;;;;;22.08;17.95;;;18.50;64.20;;;;;;5052155;28;20649;-66
2022/10/03 11:40:40;;;;;;;25.50;18.23;;;18.50;64.20;;;;;;5051438;28;20178;-65
2022/10/03 11:43:36;;;;;;;20.25;18.15;;;18.50;64.20;;;;;;5053378;28;20186;-66
2022/10/03 11:46:20;;;;;;;20.15;16.85;;;18.50;64.40;;;;;;5051424;28;20218;-66
2022/10/03 11:49:00;;;;;;;20.52;16.20;;;18.40;64.30;;;;;;5052749;28;20237;-66
2022/10/03 11:51:38;;;;;;;18.73;16.45;;;18.40;64.30;;;;;;5052585;28;20213;-67
2022/10/03 11:54:26;;;;;;;21.33;16.13;;;18.40;64.30;;;;;;5052313;28;20261;-67
2022/10/03 11:57:26;;;;;;;20.00;15.45;;;18.40;64.30;;;;;;5051647;28;20171;-67
2022/10/03 12:00:16;;;;;;;19.00;15.20;;;18.40;64.30;;;;;;5051726;28;20297;-66
2022/10/03 12:02:47;;;;;;;17.73;15.70;;;18.40;64.30;;;;;;5051557;28;20221;-66
2022/10/03 12:05:31;;;;;;;18.42;14.27;;;18.40;64.30;;;;;;5051593;28;20194;-66
2022/10/03 12:11:14;;;;;;;17.83;15.00;;;18.30;64.30;;;;;;5051232;28;20233;-66
2022/10/03 12:14:02;;;;;;;18.38;14.77;;;18.40;64.40;;;;;;5051726;28;20230;-66
2022/10/03 12:16:29;;;;;;;16.30;14.45;;;18.30;64.30;;;;;;5051518;28;20171;-66
2022/10/03 12:19:02;;;;;;;17.83;13.50;;;18.30;65.20;;;;;;5050632;28;20187;-66
2022/10/03 12:21:32;;;;;;;17.23;13.73;;;18.30;64.30;;;;;;5052520;28;20182;-67
2022/10/03 12:24:19;;;;;;;16.65;13.20;;;18.30;64.30;;;;;;5050897;28;20183;-66
2022/10/03 12:26:56;;;;;;;17.95;13.45;;;18.30;64.30;;;;;;5054552;28;20696;-66
2022/10/03 12:29:24;;;;;;;14.10;12.18;;;18.30;64.30;;;;;;5055378;28;20203;-66
2022/10/03 12:32:16;;;;;;;17.58;13.20;;;18.30;64.30;;;;;;5055055;28;20659;-65
2022/10/03 12:35:00;;;;;;;17.02;12.35;;;18.30;64.30;;;;;;5054997;28;20183;-66
2022/10/03 12:37:38;;;;;;;16.95;12.63;;;18.20;64.20;;;;;;5056358;28;20209;-66
2022/10/03 12:40:19;;;;;;;13.63;12.23;;;18.30;64.20;;;;;;5053918;28;20676;-66
2022/10/03 12:43:01;;;;;;;14.50;11.70;;;18.30;64.20;;;;;;5056225;28;20284;-66
2022/10/03 12:45:38;;;;;;;13.00;11.70;;;18.30;64.10;;;;;;5056116;28;20203;-66
2022/10/03 12:48:25;;;;;;;14.77;11.57;;;18.30;64.10;;;;;;5054853;28;20190;-66
2022/10/03 12:51:06;;;;;;;13.57;12.18;;;18.30;64.00;;;;;;5056015;28;20171;-66
2022/10/03 12:54:09;;;;;;;12.57;10.73;;;18.30;64.00;;;;;;5054074;28;20187;-66
2022/10/03 12:57:02;;;;;;;13.48;10.68;;;18.40;64.10;;;;;;5055870;28;20258;-66
2022/10/03 12:59:34;;;;;;;16.00;11.35;;;18.40;64.00;;;;;;5055905;28;20182;-66
2022/10/03 13:02:22;;;;;;;12.45;10.88;;;18.50;64.00;;;;;;5053861;28;20190;-66
2022/10/03 13:05:27;;;;;;;12.13;10.68;;;18.50;63.60;;;;;;5054553;28;20175;-65
2022/10/03 13:08:02;;;;;;;12.88;9.68;;;18.60;63.30;;;;;;5047318;28;20195;-65
2022/10/03 13:10:48;;;;;;;13.05;10.55;;;18.70;63.30;;;;;;5054505;28;20175;-65
2022/10/03 13:13:30;;;;;;;10.85;9.75;;;18.70;63.20;;;;;;5053896;28;20227;-65
2022/10/03 13:16:12;;;;;;;11.18;9.35;;;18.70;64.00;;;;;;5054762;28;20229;-65
2022/10/03 13:18:46;;;;;;;11.85;9.77;;;18.70;63.30;;;;;;5054171;28;20174;-65
2022/10/03 13:21:42;;;;;;;11.07;9.90;;;18.60;63.30;;;;;;5054788;28;20289;-65
2022/10/03 13:24:19;;;;;;;11.13;9.98;;;18.60;63.40;;;;;;5055055;28;20175;-65
2022/10/03 13:27:07;;;;;;;10.70;9.60;;;18.50;63.40;;;;;;5054199;28;20206;-65
2022/10/03 13:29:41;;;;;;;11.52;9.63;;;18.50;63.50;;;;;;5053342;28;20183;-65
2022/10/03 13:32:29;;;;;;;10.57;8.63;;;18.50;63.60;;;;;;5055020;28;20177;-65
2022/10/03 13:35:57;;;;;;;9.55;7.97;;;18.50;63.60;;;;;;5053821;28;20175;-65
2022/10/03 13:38:19;;;;;;;10.65;8.00;;;18.50;63.60;;;;;;5054049;28;20191;-65
2022/10/03 13:40:55;;;;;;;8.88;7.97;;;18.50;63.70;;;;;;5054981;28;20689;-66
2022/10/03 13:43:24;;;;;;;10.93;8.90;;;18.50;63.50;;;;;;5052683;28;20182;-66
2022/10/03 13:45:50;;;;;;;9.80;8.50;;;18.50;63.50;;;;;;5053803;28;20218;-66
2022/10/03 13:48:25;;;;;;;9.73;8.43;;;18.50;63.50;;;;;;5053353;28;20262;-66
2022/10/03 13:51:28;;;;;;;9.40;8.38;;;18.50;63.50;;;;;;5053017;28;20170;-66
2022/10/03 13:54:01;;;;;;;9.48;8.25;;;18.50;63.50;;;;;;5053638;28;20629;-66
2022/10/03 13:56:43;;;;;;;9.70;7.88;;;18.50;63.60;;;;;;5052983;28;20252;-66
2022/10/03 13:59:23;;;;;;;9.93;7.65;;;18.50;63.50;;;;;;5054451;28;20171;-66
2022/10/03 14:02:16;;;;;;;9.60;8.35;;;18.50;63.50;;;;;;5054701;28;20171;-65
2022/10/03 14:05:07;;;;;;;8.00;7.20;;;18.50;63.50;;;;;;5053072;28;20203;-66
2022/10/03 14:07:52;;;;;;;8.48;7.47;;;18.50;63.40;;;;;;5054568;28;20187;-65
2022/10/03 14:10:20;;;;;;;8.15;7.35;;;18.50;63.40;;;;;;5052946;28;20562;-65
2022/10/03 14:12:53;;;;;;;8.95;7.45;;;18.50;63.40;;;;;;5052212;28;20273;-66
2022/10/03 14:15:21;;;;;;;8.90;7.78;;;18.50;63.40;;;;;;5053050;28;20274;-66
2022/10/03 14:18:02;;;;;;;8.13;7.03;;;18.50;63.40;;;;;;5053524;28;21034;-66
2022/10/03 14:20:57;;;;;;;7.63;6.85;;;18.50;63.50;;;;;;5054227;28;20261;-66
2022/10/03 14:23:50;;;;;;;7.95;7.15;;;18.40;63.40;;;;;;5053379;28;20224;-65
2022/10/03 14:26:35;;;;;;;7.60;6.78;;;18.40;63.50;;;;;;5049783;28;20229;-66
2022/10/03 14:29:46;;;;;;;7.05;6.25;;;18.40;63.50;;;;;;5052605;28;20178;-66